createdAt,value
2018-10-18T00:01:46.073Z,82.60
2018-10-18T00:04:20.622Z,82.60
2018-10-18T00:06:56.054Z,82.60
2018-10-18T00:09:30.885Z,82.60
2018-10-18T00:12:06.144Z,82.60
2018-10-18T00:14:41.058Z,82.60
2018-10-18T00:17:21.270Z,82.60
2018-10-18T00:19:56.281Z,82.60
2018-10-18T00:22:30.749Z,82.40
2018-10-18T00:25:05.857Z,82.40
2018-10-18T00:27:40.904Z,82.50
2018-10-18T00:30:15.630Z,82.50
2018-10-18T00:32:50.025Z,82.70
2018-10-18T00:35:24.664Z,82.60
2018-10-18T00:37:59.319Z,83.30
2018-10-18T00:40:33.745Z,82.50
2018-10-18T00:43:08.321Z,82.50
2018-10-18T00:45:42.950Z,82.60
2018-10-18T00:48:17.558Z,82.30
2018-10-18T00:50:52.104Z,82.40
2018-10-18T00:53:26.646Z,82.40
2018-10-18T00:56:01.319Z,82.40
2018-10-18T00:58:35.831Z,82.40
2018-10-18T01:01:10.534Z,82.10
2018-10-18T01:03:44.973Z,82.50
2018-10-18T01:06:19.680Z,82.50
2018-10-18T01:08:54.254Z,82.40
2018-10-18T01:11:29.786Z,82.50
2018-10-18T01:14:05.082Z,82.60
2018-10-18T01:16:39.804Z,82.60
2018-10-18T01:19:14.215Z,82.60
2018-10-18T01:21:48.585Z,82.50
2018-10-18T01:24:23.146Z,82.50
2018-10-18T01:26:57.710Z,83.00
2018-10-18T01:29:32.418Z,82.40
2018-10-18T01:32:07.101Z,82.50
2018-10-18T01:34:41.369Z,82.50
2018-10-18T01:37:15.960Z,82.40
2018-10-18T01:39:50.885Z,82.40
2018-10-18T01:42:25.241Z,82.30
2018-10-18T01:44:59.781Z,82.40
2018-10-18T01:47:34.419Z,82.50
2018-10-18T01:50:09.393Z,82.50
2018-10-18T01:52:43.521Z,82.60
2018-10-18T01:55:18.172Z,82.60
2018-10-18T01:57:52.694Z,82.50
2018-10-18T02:00:27.202Z,82.50
2018-10-18T02:03:02.045Z,82.50
2018-10-18T02:05:36.262Z,82.40
2018-10-18T02:08:11.006Z,82.40
2018-10-18T02:10:45.594Z,82.40
2018-10-18T02:13:20.544Z,82.50
2018-10-18T02:15:54.837Z,82.40
2018-10-18T02:18:29.620Z,82.30
2018-10-18T02:21:04.944Z,82.20
2018-10-18T02:23:39.566Z,82.80
2018-10-18T02:26:14.129Z,82.40
2018-10-18T02:28:48.673Z,82.40
2018-10-18T02:31:23.265Z,82.50
2018-10-18T02:33:57.893Z,82.40
2018-10-18T02:36:32.521Z,82.40
2018-10-18T02:39:08.427Z,82.50
2018-10-18T02:41:42.686Z,82.50
2018-10-18T02:44:17.167Z,82.50
2018-10-18T02:46:51.631Z,82.60
2018-10-18T02:49:26.440Z,82.60
2018-10-18T02:52:00.697Z,82.60
2018-10-18T02:54:35.308Z,82.40
2018-10-18T02:57:09.931Z,82.40
2018-10-18T02:59:44.458Z,82.40
2018-10-18T03:02:19.101Z,82.40
2018-10-18T03:04:53.558Z,82.40
2018-10-18T03:07:28.197Z,82.50
2018-10-18T03:10:02.826Z,82.60
2018-10-18T03:12:37.387Z,82.50
2018-10-18T03:15:11.933Z,82.60
2018-10-18T03:17:46.800Z,82.60
2018-10-18T03:20:21.166Z,82.60
2018-10-18T03:22:55.747Z,82.70
2018-10-18T03:25:30.181Z,82.70
2018-10-18T03:28:05.250Z,82.70
2018-10-18T03:30:40.302Z,82.70
2018-10-18T03:33:14.997Z,82.70
2018-10-18T03:35:49.829Z,82.80
2018-10-18T03:38:24.554Z,82.80
2018-10-18T03:40:59.601Z,82.70
2018-10-18T03:43:34.279Z,82.70
2018-10-18T03:46:08.873Z,82.70
2018-10-18T03:48:43.677Z,82.60
2018-10-18T03:51:17.919Z,82.50
2018-10-18T03:53:52.631Z,82.50
2018-10-18T03:56:27.162Z,82.50
2018-10-18T03:59:01.732Z,82.50
2018-10-18T04:01:36.160Z,82.60
2018-10-18T04:04:10.637Z,82.90
2018-10-18T04:06:45.245Z,82.50
2018-10-18T04:09:19.785Z,82.60
2018-10-18T04:11:54.382Z,82.60
2018-10-18T04:14:28.956Z,82.60
2018-10-18T04:17:03.730Z,82.50
2018-10-18T04:19:38.062Z,82.40
2018-10-18T04:22:12.579Z,82.50
2018-10-18T04:24:47.082Z,82.40
2018-10-18T04:27:21.607Z,82.40
2018-10-18T04:29:56.116Z,82.40
2018-10-18T04:32:30.620Z,82.50
2018-10-18T04:35:06.217Z,82.50
2018-10-18T04:37:40.846Z,82.50
2018-10-18T04:40:15.559Z,82.50
2018-10-18T04:42:50.745Z,82.60
2018-10-18T04:45:25.977Z,82.50
2018-10-18T04:48:00.951Z,83.10
2018-10-18T04:50:35.235Z,82.40
2018-10-18T04:53:10.386Z,82.40
2018-10-18T04:55:45.437Z,82.30
2018-10-18T04:58:19.964Z,82.40
2018-10-18T05:00:54.511Z,82.40
2018-10-18T05:03:28.993Z,82.50
2018-10-18T05:06:05.242Z,82.60
2018-10-18T05:08:40.128Z,82.80
2018-10-18T05:11:14.590Z,83.50
2018-10-18T05:13:48.993Z,82.90
2018-10-18T05:16:23.565Z,83.00
2018-10-18T05:18:58.219Z,83.00
2018-10-18T05:21:32.962Z,82.90
2018-10-18T05:24:07.568Z,82.80
2018-10-18T05:26:42.003Z,82.90
2018-10-18T05:29:16.829Z,82.80
2018-10-18T05:31:51.563Z,82.70
2018-10-18T05:34:25.962Z,82.70
2018-10-18T05:37:00.876Z,82.80
2018-10-18T05:39:35.220Z,82.80
2018-10-18T05:42:09.809Z,82.90
2018-10-18T05:44:44.379Z,83.10
2018-10-18T05:47:19.528Z,83.20
2018-10-18T05:49:53.793Z,83.30
2018-10-18T05:52:29.278Z,83.30
2018-10-18T05:55:04.233Z,83.30
2018-10-18T05:57:39.937Z,83.50
2018-10-18T06:00:16.297Z,83.60
2018-10-18T06:02:50.465Z,84.20
2018-10-18T06:05:24.974Z,83.60
2018-10-18T06:11:25.366Z,83.70
2018-10-18T06:14:00.193Z,83.60
2018-10-18T06:16:35.053Z,83.50
2018-10-18T06:19:09.853Z,83.50
2018-10-18T06:21:44.352Z,83.40
2018-10-18T06:24:19.155Z,83.50
2018-10-18T06:26:54.562Z,83.30
2018-10-18T06:29:29.012Z,83.30
2018-10-18T06:32:04.116Z,83.20
2018-10-18T06:34:38.941Z,83.30
2018-10-18T06:37:13.658Z,83.10
2018-10-18T06:39:48.103Z,83.00
2018-10-18T06:42:22.669Z,82.90
2018-10-18T06:44:57.161Z,82.80
2018-10-18T06:47:31.730Z,82.80
2018-10-18T06:50:09.523Z,82.90
2018-10-18T06:52:44.199Z,82.70
2018-10-18T06:55:19.456Z,82.60
2018-10-18T06:57:53.725Z,82.40
2018-10-18T07:00:28.247Z,82.30
2018-10-18T07:03:02.731Z,82.30
2018-10-18T07:05:37.217Z,82.30
2018-10-18T07:08:11.973Z,82.30
2018-10-18T07:10:46.928Z,81.20
2018-10-18T07:13:21.841Z,80.90
2018-10-18T07:15:57.064Z,80.70
2018-10-18T07:18:31.624Z,80.70
2018-10-18T07:21:06.374Z,80.60
2018-10-18T07:23:40.790Z,80.50
2018-10-18T07:26:15.384Z,80.10
2018-10-18T07:28:49.911Z,79.70
2018-10-18T07:31:24.630Z,79.40
2018-10-18T07:33:59.137Z,78.80
2018-10-18T07:36:33.915Z,78.20
2018-10-18T07:39:12.343Z,77.90
2018-10-18T07:41:47.361Z,77.10
2018-10-18T07:44:22.006Z,76.30
2018-10-18T07:46:56.679Z,75.60
2018-10-18T07:49:31.173Z,74.70
2018-10-18T07:52:06.184Z,74.50
2018-10-18T07:54:41.246Z,74.00
2018-10-18T07:57:15.822Z,73.80
2018-10-18T07:59:50.295Z,73.40
2018-10-18T08:02:24.796Z,73.20
2018-10-18T08:04:59.379Z,72.80
2018-10-18T08:07:34.028Z,72.50
2018-10-18T08:10:12.569Z,72.50
2018-10-18T08:12:47.748Z,72.40
2018-10-18T08:15:22.968Z,72.20
2018-10-18T08:17:57.352Z,72.30
2018-10-18T08:20:32.122Z,71.60
2018-10-18T08:23:06.975Z,70.70
2018-10-18T08:25:41.165Z,71.00
2018-10-18T08:28:15.515Z,70.70
2018-10-18T08:30:52.739Z,69.80
2018-10-18T08:33:27.727Z,68.80
2018-10-18T08:36:02.245Z,69.00
2018-10-18T08:38:36.814Z,68.50
2018-10-18T08:41:11.393Z,68.40
2018-10-18T08:43:46.089Z,68.40
2018-10-18T08:46:20.910Z,67.70
2018-10-18T08:48:55.368Z,68.00
2018-10-18T08:51:30.381Z,67.40
2018-10-18T08:54:05.834Z,67.10
2018-10-18T08:56:40.418Z,65.90
2018-10-18T08:59:14.873Z,66.00
2018-10-18T09:01:49.357Z,65.80
2018-10-18T09:04:24.039Z,65.20
2018-10-18T09:06:58.601Z,64.60
2018-10-18T09:09:33.346Z,64.20
2018-10-18T09:12:07.880Z,63.20
2018-10-18T09:14:42.345Z,62.90
2018-10-18T09:17:17.292Z,62.40
2018-10-18T09:19:51.779Z,60.50
2018-10-18T09:22:26.398Z,60.10
2018-10-18T09:25:01.298Z,60.70
2018-10-18T09:27:36.504Z,59.70
2018-10-18T09:30:12.363Z,59.70
2018-10-18T09:32:46.751Z,58.90
2018-10-18T09:35:21.462Z,58.00
2018-10-18T09:37:55.830Z,57.60
2018-10-18T09:40:30.340Z,58.10
2018-10-18T09:43:05.276Z,56.60
2018-10-18T09:45:40.498Z,56.90
2018-10-18T09:48:15.228Z,57.20
2018-10-18T09:50:49.875Z,56.30
2018-10-18T09:53:24.493Z,57.20
2018-10-18T09:55:59.010Z,56.50
2018-10-18T09:58:33.870Z,56.60
2018-10-18T10:01:14.111Z,55.90
2018-10-18T10:03:48.808Z,56.20
2018-10-18T10:06:23.464Z,56.80
2018-10-18T10:08:59.096Z,57.30
2018-10-18T10:11:34.478Z,57.00
2018-10-18T10:14:08.981Z,57.60
2018-10-18T10:16:43.876Z,57.80
2018-10-18T10:19:18.213Z,58.40
2018-10-18T10:21:53.095Z,58.40
2018-10-18T10:24:27.799Z,58.50
2018-10-18T10:27:02.939Z,58.20
2018-10-18T10:29:37.483Z,57.70
2018-10-18T10:32:12.247Z,58.80
2018-10-18T10:34:46.822Z,59.10
2018-10-18T10:37:21.418Z,57.90
2018-10-18T10:39:56.440Z,57.60
2018-10-18T10:42:31.609Z,58.10
2018-10-18T10:45:08.036Z,58.70
2018-10-18T10:47:42.706Z,59.20
2018-10-18T10:50:17.712Z,59.00
2018-10-18T10:52:51.940Z,59.50
2018-10-18T10:55:26.441Z,59.00
2018-10-18T10:58:01.003Z,58.60
2018-10-18T11:01:12.047Z,59.30
2018-10-18T11:03:47.253Z,59.40
2018-10-18T11:06:22.983Z,59.50
2018-10-18T11:08:58.092Z,60.50
2018-10-18T11:11:32.876Z,60.90
2018-10-18T11:14:07.579Z,60.50
2018-10-18T11:16:42.007Z,60.70
2018-10-18T11:19:16.697Z,60.60
2018-10-18T11:21:51.277Z,61.20
2018-10-18T11:24:25.908Z,61.00
2018-10-18T11:27:00.673Z,61.00
2018-10-18T11:29:35.310Z,61.70
2018-10-18T11:32:09.962Z,62.00
2018-10-18T11:34:44.661Z,62.30
2018-10-18T11:37:19.118Z,62.80
2018-10-18T11:39:53.665Z,62.30
2018-10-18T11:42:28.298Z,63.10
2018-10-18T11:45:02.789Z,62.90
2018-10-18T11:47:37.310Z,62.80
2018-10-18T11:50:11.870Z,62.70
2018-10-18T11:52:46.651Z,62.90
2018-10-18T11:55:22.433Z,63.40
2018-10-18T11:57:57.518Z,63.40
2018-10-18T12:00:32.031Z,62.80
2018-10-18T12:03:06.609Z,63.10
2018-10-18T12:05:41.261Z,62.50
2018-10-18T12:08:15.944Z,62.70
2018-10-18T12:10:50.443Z,63.00
2018-10-18T12:13:25.369Z,63.30
2018-10-18T12:16:00.674Z,63.10
2018-10-18T12:18:35.510Z,62.90
2018-10-18T12:21:10.142Z,63.50
2018-10-18T12:23:44.709Z,63.40
2018-10-18T12:26:19.347Z,63.60
2018-10-18T12:28:53.712Z,63.60
2018-10-18T12:31:28.248Z,62.30
2018-10-18T12:34:02.831Z,62.20
2018-10-18T12:36:37.349Z,62.80
2018-10-18T12:39:11.928Z,62.00
2018-10-18T12:41:46.471Z,62.40
2018-10-18T12:44:20.863Z,61.50
2018-10-18T12:46:55.451Z,62.30
2018-10-18T12:49:29.832Z,61.50
2018-10-18T12:52:05.293Z,61.40
2018-10-18T12:54:40.205Z,61.30
2018-10-18T12:57:14.919Z,61.10
2018-10-18T12:59:49.801Z,61.00
2018-10-18T13:02:25.101Z,60.10
2018-10-18T13:04:59.497Z,60.80
2018-10-18T13:07:34.024Z,60.70
2018-10-18T13:10:10.466Z,61.00
2018-10-18T13:12:45.166Z,60.20
2018-10-18T13:15:19.746Z,60.20
2018-10-18T13:17:54.374Z,60.70
2018-10-18T13:20:29.360Z,60.90
2018-10-18T13:23:04.470Z,60.20
2018-10-18T13:25:39.193Z,60.20
2018-10-18T13:28:13.538Z,58.90
2018-10-18T13:30:47.974Z,58.00
2018-10-18T13:33:22.487Z,58.80
2018-10-18T13:35:57.100Z,59.20
2018-10-18T13:38:31.943Z,59.80
2018-10-18T13:41:06.817Z,60.50
2018-10-18T13:43:41.084Z,60.40
2018-10-18T13:46:15.598Z,60.40
2018-10-18T13:48:50.553Z,60.90
2018-10-18T13:51:24.908Z,60.80
2018-10-18T13:53:59.457Z,60.40
2018-10-18T13:56:34.008Z,61.30
2018-10-18T14:00:20.015Z,61.30
2018-10-18T14:02:55.305Z,61.40
2018-10-18T14:05:30.593Z,62.20
2018-10-18T14:08:05.270Z,62.10
2018-10-18T14:10:39.886Z,61.90
2018-10-18T14:13:14.385Z,62.10
2018-10-18T14:15:49.328Z,61.60
2018-10-18T14:18:24.530Z,61.30
2018-10-18T14:20:59.073Z,61.00
2018-10-18T14:23:33.710Z,61.00
2018-10-18T14:26:08.610Z,60.00
2018-10-18T14:28:42.961Z,59.60
2018-10-18T14:31:17.536Z,60.20
2018-10-18T14:33:52.145Z,60.10
2018-10-18T14:36:26.541Z,60.00
2018-10-18T14:39:01.141Z,60.30
2018-10-18T14:41:36.252Z,60.50
2018-10-18T14:44:11.304Z,60.70
2018-10-18T14:46:45.967Z,60.50
2018-10-18T14:49:20.745Z,60.40
2018-10-18T14:51:55.593Z,61.30
2018-10-18T14:54:30.989Z,61.20
2018-10-18T14:57:05.777Z,61.90
2018-10-18T14:59:41.684Z,61.40
2018-10-18T15:02:16.687Z,61.30
2018-10-18T15:04:51.765Z,62.30
2018-10-18T15:07:26.894Z,62.30
2018-10-18T15:10:01.355Z,62.70
2018-10-18T15:12:36.113Z,63.10
2018-10-18T15:15:13.007Z,63.00
2018-10-18T15:17:48.409Z,63.10
2018-10-18T15:20:23.901Z,63.00
2018-10-18T15:22:59.203Z,64.30
2018-10-18T15:25:33.800Z,64.10
2018-10-18T15:28:08.614Z,63.70
2018-10-18T15:30:43.445Z,63.60
2018-10-18T15:33:18.845Z,63.80
2018-10-18T15:35:54.069Z,64.00
2018-10-18T15:38:28.728Z,64.00
2018-10-18T15:41:03.818Z,64.10
2018-10-18T15:43:38.739Z,64.60
2018-10-18T15:46:13.879Z,63.80
2018-10-18T15:48:49.012Z,64.40
2018-10-18T15:51:23.899Z,64.30
2018-10-18T15:53:58.180Z,64.40
2018-10-18T15:56:32.728Z,64.60
2018-10-18T15:59:07.915Z,65.10
2018-10-18T16:01:43.274Z,65.70
2018-10-18T16:04:17.673Z,65.50
2018-10-18T16:06:52.175Z,65.90
2018-10-18T16:09:26.569Z,65.60
2018-10-18T16:12:01.166Z,65.90
2018-10-18T16:14:36.165Z,66.10
2018-10-18T16:17:10.529Z,66.70
2018-10-18T16:19:44.958Z,67.30
2018-10-18T16:22:19.688Z,67.80
2018-10-18T16:24:54.125Z,67.90
2018-10-18T16:27:28.456Z,68.50
2018-10-18T16:30:02.946Z,68.90
2018-10-18T16:32:38.027Z,69.40
2018-10-18T16:35:14.191Z,69.70
2018-10-18T16:37:49.393Z,70.30
2018-10-18T16:40:25.540Z,71.20
2018-10-18T16:43:01.214Z,71.50
2018-10-18T16:45:36.759Z,71.80
2018-10-18T16:48:11.223Z,72.10
2018-10-18T16:50:45.778Z,72.50
2018-10-18T16:53:20.304Z,72.80
2018-10-18T16:55:54.655Z,73.10
2018-10-18T16:58:29.471Z,73.40
2018-10-18T17:01:03.860Z,73.60
2018-10-18T17:03:38.333Z,73.80
2018-10-18T17:06:13.038Z,74.20
2018-10-18T17:08:47.480Z,74.40
2018-10-18T17:11:22.050Z,74.60
2018-10-18T17:13:56.376Z,74.80
2018-10-18T17:16:30.949Z,75.10
2018-10-18T17:19:06.077Z,75.20
2018-10-18T17:21:41.249Z,75.60
2018-10-18T17:24:15.863Z,76.10
2018-10-18T17:26:50.555Z,76.00
2018-10-18T17:29:25.002Z,76.30
2018-10-18T17:31:59.700Z,76.50
2018-10-18T17:34:34.323Z,76.70
2018-10-18T17:37:08.794Z,76.80
2018-10-18T17:39:43.409Z,77.00
2018-10-18T17:42:18.067Z,77.10
2018-10-18T17:44:52.937Z,77.10
2018-10-18T17:47:28.354Z,77.30
2018-10-18T17:50:03.051Z,77.50
2018-10-18T17:52:38.329Z,77.70
2018-10-18T17:55:12.829Z,77.80
2018-10-18T17:57:47.756Z,78.00
2018-10-18T18:00:23.148Z,78.00
2018-10-18T18:02:57.797Z,78.30
2018-10-18T18:05:32.425Z,78.50
2018-10-18T18:08:07.057Z,79.60
2018-10-18T18:10:42.560Z,78.70
2018-10-18T18:13:17.090Z,78.70
2018-10-18T18:15:51.915Z,78.60
2018-10-18T18:18:27.053Z,78.70
2018-10-18T18:21:01.513Z,78.90
2018-10-18T18:23:36.082Z,79.20
2018-10-18T18:26:11.005Z,79.20
2018-10-18T18:28:45.249Z,79.50
2018-10-18T18:31:19.902Z,79.50
2018-10-18T18:33:54.744Z,79.50
2018-10-18T18:36:29.145Z,79.70
2018-10-18T18:39:06.439Z,79.90
2018-10-18T18:41:41.182Z,79.90
2018-10-18T18:44:16.014Z,80.00
2018-10-18T18:46:50.442Z,80.10
2018-10-18T18:49:24.930Z,80.10
2018-10-18T18:51:59.554Z,80.30
2018-10-18T18:54:34.122Z,80.30
2018-10-18T18:57:08.675Z,80.50
2018-10-18T18:59:43.199Z,80.60
2018-10-18T19:02:17.559Z,80.70
2018-10-18T19:04:52.089Z,80.70
2018-10-18T19:07:26.884Z,80.80
2018-10-18T19:10:01.341Z,80.90
2018-10-18T19:12:35.888Z,81.10
2018-10-18T19:15:10.942Z,81.10
2018-10-18T19:17:45.078Z,81.20
2018-10-18T19:20:19.986Z,81.10
2018-10-18T19:22:54.313Z,81.20
2018-10-18T19:25:28.897Z,81.20
2018-10-18T19:28:03.424Z,81.30
2018-10-18T19:30:38.431Z,81.30
2018-10-18T19:33:12.683Z,81.50
2018-10-18T19:35:47.301Z,81.50
2018-10-18T19:38:21.827Z,81.50
2018-10-18T19:40:56.084Z,81.50
2018-10-18T19:43:30.689Z,81.70
2018-10-18T19:46:05.932Z,81.60
2018-10-18T19:48:40.789Z,81.70
2018-10-18T19:51:15.419Z,81.70
2018-10-18T19:53:49.963Z,81.80
2018-10-18T19:56:24.563Z,81.80
2018-10-18T19:58:59.166Z,81.90
2018-10-18T20:01:33.688Z,81.90
2018-10-18T20:04:08.460Z,81.90
2018-10-18T20:06:42.915Z,82.00
2018-10-18T20:09:17.496Z,82.10
2018-10-18T20:11:52.089Z,82.60
2018-10-18T20:14:26.487Z,82.20
2018-10-18T20:17:01.079Z,82.10
2018-10-18T20:19:35.705Z,82.20
2018-10-18T20:22:11.927Z,82.20
2018-10-18T20:24:46.796Z,82.20
2018-10-18T20:27:21.507Z,82.30
2018-10-18T20:29:56.658Z,82.40
2018-10-18T20:32:31.521Z,82.40
2018-10-18T20:35:06.873Z,82.50
2018-10-18T20:37:41.940Z,82.50
2018-10-18T20:40:16.474Z,82.40
2018-10-18T20:42:50.798Z,82.40
2018-10-18T20:45:32.471Z,82.20
2018-10-18T20:48:07.207Z,82.30
2018-10-18T20:50:41.546Z,82.40
2018-10-18T20:53:16.265Z,82.40
2018-10-18T20:55:50.856Z,83.10
2018-10-18T20:58:25.089Z,82.40
2018-10-18T21:00:59.660Z,82.50
2018-10-18T21:03:34.188Z,83.40
2018-10-18T21:06:08.933Z,82.60
2018-10-18T21:08:43.484Z,82.60
2018-10-18T21:11:17.977Z,82.60
2018-10-18T21:13:52.941Z,82.60
2018-10-18T21:16:27.381Z,82.60
2018-10-18T21:19:01.636Z,82.60
2018-10-18T21:21:36.137Z,82.60
2018-10-18T21:24:10.665Z,82.70
2018-10-18T21:26:45.278Z,82.60
2018-10-18T21:29:20.057Z,82.60
2018-10-18T21:31:54.421Z,82.60
2018-10-18T21:34:28.947Z,82.70
2018-10-18T21:37:03.633Z,82.70
2018-10-18T21:39:38.318Z,82.70
2018-10-18T21:42:12.437Z,82.80
2018-10-18T21:44:47.975Z,82.80
2018-10-18T21:47:23.160Z,82.80
2018-10-18T21:49:57.386Z,82.80
2018-10-18T21:52:32.062Z,82.80
2018-10-18T21:55:07.390Z,82.90
2018-10-18T21:57:42.410Z,82.90
2018-10-18T22:00:17.488Z,82.90
2018-10-18T22:02:52.454Z,82.80
2018-10-18T22:05:26.912Z,83.60
2018-10-18T22:08:01.467Z,82.90
2018-10-18T22:10:36.161Z,82.90
2018-10-18T22:13:10.581Z,82.80
2018-10-18T22:15:45.199Z,82.90
2018-10-18T22:18:19.790Z,82.90
2018-10-18T22:20:54.481Z,82.80
2018-10-18T22:23:29.095Z,82.80
2018-10-18T22:26:04.027Z,82.80
2018-10-18T22:28:38.230Z,82.80
2018-10-18T22:31:12.961Z,82.80
2018-10-18T22:33:47.526Z,83.80
2018-10-18T22:36:22.289Z,82.90
2018-10-18T22:38:57.118Z,83.90
2018-10-18T22:41:32.346Z,83.90
2018-10-18T22:44:08.305Z,83.90
2018-10-18T22:46:43.053Z,83.90
2018-10-18T22:49:17.662Z,84.00
2018-10-18T22:51:52.112Z,84.00
2018-10-18T22:54:26.718Z,84.00
2018-10-18T22:57:01.315Z,84.00
2018-10-18T22:59:35.755Z,83.90
2018-10-18T23:02:10.353Z,83.80
2018-10-18T23:04:45.330Z,83.80
2018-10-18T23:07:19.690Z,83.80
2018-10-18T23:09:54.365Z,83.70
2018-10-18T23:12:28.918Z,83.80
2018-10-18T23:15:04.210Z,83.80
2018-10-18T23:17:39.319Z,83.70
2018-10-18T23:20:13.820Z,83.80
2018-10-18T23:22:48.258Z,83.80
2018-10-18T23:25:23.263Z,83.80
2018-10-18T23:27:57.522Z,83.90
2018-10-18T23:30:31.941Z,83.80
2018-10-18T23:33:06.695Z,83.80
2018-10-18T23:35:48.229Z,83.80
2018-10-18T23:38:22.701Z,83.70
2018-10-18T23:40:57.341Z,83.60
2018-10-18T23:43:31.950Z,83.70
2018-10-18T23:46:06.578Z,83.70
2018-10-18T23:48:41.315Z,83.70
2018-10-18T23:51:15.620Z,83.60
2018-10-18T23:53:50.149Z,83.60
2018-10-18T23:56:24.605Z,83.60
2018-10-18T23:58:59.135Z,83.50
